Time;durP1;ratioP1;P1;durP2;ratioP2;P2;SDS_P1;SDS_P2;PMS_P1;PMS_P2;Temp;Humidity;BMP_temperature;BMP_pressure;BME280_temperature;BME280_humidity;BME280_pressure;Samples;Min_cycle;Max_cycle;Signal;HPM_P1;HPM_P2
2021/08/06 00:00:34;;;;;;;7.53;2.33;;;;;;;21.74;54.29;98119.84;5031173;28;20055;-52
2021/08/06 00:03:01;;;;;;;3.90;1.60;;;;;;;22.01;54.00;98123.75;5047165;28;20037;-52
2021/08/06 00:05:26;;;;;;;4.50;3.55;;;;;;;22.33;53.22;98113.16;5034811;28;20021;-51
2021/08/06 00:07:52;;;;;;;4.25;2.88;;;;;;;22.27;53.50;98105.50;5034820;28;20028;-52
2021/08/06 00:10:18;;;;;;;7.43;3.03;;;;;;;21.86;54.73;98111.41;5034782;28;20108;-51
2021/08/06 00:12:43;;;;;;;16.45;13.52;;;;;;;21.41;56.00;98109.03;5034714;28;20030;-52
2021/08/06 00:15:09;;;;;;;2.58;1.80;;;;;;;21.40;56.18;98103.97;5034685;28;20416;-52
2021/08/06 00:17:35;;;;;;;9.32;5.57;;;;;;;21.61;55.75;98104.53;5049931;28;20030;-52
2021/08/06 00:20:01;;;;;;;11.55;6.63;;;;;;;21.83;55.19;98093.28;5049614;28;20064;-51
2021/08/06 00:22:27;;;;;;;7.57;4.65;;;;;;;22.20;54.37;98091.69;5034668;28;20052;-52
2021/08/06 00:24:53;;;;;;;4.03;1.50;;;;;;;22.17;53.78;98087.69;5034526;28;20114;-51
2021/08/06 00:27:18;;;;;;;4.82;2.10;;;;;;;21.85;54.21;98075.91;5034422;28;20022;-52
2021/08/06 00:29:44;;;;;;;2.03;1.45;;;;;;;21.43;54.71;98080.19;5034419;28;20025;-52
2021/08/06 00:32:10;;;;;;;4.95;1.80;;;;;;;21.12;55.62;98077.84;5049591;28;20030;-52
2021/08/06 00:34:35;;;;;;;5.00;1.40;;;;;;;21.01;55.47;98075.59;5049658;28;20079;-51
2021/08/06 00:37:01;;;;;;;2.03;1.20;;;;;;;21.02;55.47;98072.63;5034320;28;20096;-51
2021/08/06 00:39:26;;;;;;;3.00;1.45;;;;;;;21.12;55.32;98069.81;5034187;28;20395;-51
2021/08/06 00:41:52;;;;;;;3.17;1.10;;;;;;;21.27;55.10;98066.22;5034194;28;20391;-51
2021/08/06 00:44:18;;;;;;;2.47;1.60;;;;;;;21.37;55.31;98064.47;5034185;28;20449;-51
2021/08/06 00:46:43;;;;;;;4.70;1.98;;;;;;;21.41;54.91;98065.50;5049369;28;20026;-52
2021/08/06 00:49:09;;;;;;;5.22;1.55;;;;;;;21.65;54.79;98058.28;5033978;28;20040;-52
2021/08/06 00:51:35;;;;;;;3.58;1.23;;;;;;;21.90;53.86;98056.31;5032696;28;20088;-51
2021/08/06 00:54:01;;;;;;;5.03;2.42;;;;;;;22.10;53.17;98056.00;5049268;28;20036;-52
2021/08/06 00:56:27;;;;;;;1.80;1.67;;;;;;;22.04;53.26;98051.03;5033901;28;20400;-51
2021/08/06 00:58:54;;;;;;;3.88;1.55;;;;;;;22.04;53.73;98051.03;5049076;28;20030;-52
2021/08/06 01:01:20;;;;;;;5.43;2.30;;;;;;;22.21;53.33;98048.63;5033788;28;20040;-52
2021/08/06 01:04:06;;;;;;;4.32;1.35;;;;;;;22.34;52.11;98047.91;5032484;28;20025;-51
2021/08/06 01:06:56;;;;;;;2.55;1.23;;;;;;;22.03;52.55;98044.09;5049075;28;20124;-52
2021/08/06 01:09:37;;;;;;;4.97;1.40;;;;;;;21.60;53.52;98046.88;5049063;28;20069;-51
2021/08/06 01:12:08;;;;;;;4.15;1.38;;;;;;;21.38;54.17;98055.41;5033639;28;20040;-51
2021/08/06 01:14:37;;;;;;;4.10;1.50;;;;;;;21.25;54.39;98051.53;5032618;28;20033;-52
2021/08/06 01:17:04;;;;;;;1.95;1.60;;;;;;;21.14;54.86;98054.31;5032102;28;20028;-52
2021/08/06 01:19:36;;;;;;;7.30;1.70;;;;;;;21.32;54.65;98057.34;5033113;28;20039;-52
2021/08/06 01:22:40;;;;;;;6.32;5.10;;;;;;;22.03;53.99;98046.78;5048697;28;20388;-52
2021/08/06 01:25:14;;;;;;;9.55;2.67;;;;;;;22.59;52.70;98037.06;4972354;28;20429;-52
2021/08/06 01:27:41;;;;;;;6.82;2.40;;;;;;;22.68;51.80;98046.00;4972268;28;20141;-52
2021/08/06 01:30:11;;;;;;;5.85;1.70;;;;;;;22.66;51.35;98037.47;4972268;28;20033;-52
2021/08/06 01:32:36;;;;;;;13.80;11.07;;;;;;;22.49;51.62;98041.50;4972227;28;20058;-51
2021/08/06 01:35:04;;;;;;;6.65;3.13;;;;;;;22.71;52.20;98043.50;4972160;28;20500;-52
2021/08/06 01:37:30;;;;;;;4.63;2.13;;;;;;;22.81;51.45;98039.84;4972211;28;20034;-52
2021/08/06 01:39:56;;;;;;;6.40;4.25;;;;;;;23.04;51.57;98046.16;4972036;28;20035;-52
2021/08/06 01:42:42;;;;;;;2.80;1.33;;;;;;;23.01;51.24;98043.25;4971996;28;20039;-52
2021/08/06 01:45:12;;;;;;;10.63;4.35;;;;;;;22.95;51.41;98045.22;4972096;28;20035;-52
2021/08/06 01:47:44;;;;;;;5.65;1.80;;;;;;;22.92;51.37;98048.50;4971963;28;20035;-52
2021/08/06 01:50:14;;;;;;;7.15;2.13;;;;;;;22.74;51.90;98044.81;4971934;28;20046;-52
2021/08/06 01:52:59;;;;;;;4.53;1.75;;;;;;;23.07;51.47;98047.44;4971769;28;20033;-52
2021/08/06 01:55:30;;;;;;;5.13;1.30;;;;;;;23.42;50.24;98040.56;4971950;28;20158;-50
2021/08/06 01:57:57;;;;;;;4.35;3.13;;;;;;;23.61;49.42;98042.31;4971846;28;20042;-52
2021/08/06 02:00:26;;;;;;;10.52;2.67;;;;;;;23.56;49.75;98043.19;4997310;28;20106;-52
2021/08/06 02:02:53;;;;;;;4.85;1.50;;;;;;;23.51;49.60;98048.69;5032680;28;20030;-52
2021/08/06 02:05:21;;;;;;;6.60;1.60;;;;;;;23.39;49.96;98051.09;5032834;28;20075;-52
2021/08/06 02:07:48;;;;;;;20.25;18.15;;;;;;;23.29;50.34;98054.75;5032550;28;20018;-52
2021/08/06 02:10:16;;;;;;;6.20;2.17;;;;;;;23.17;51.78;98049.91;5032527;28;20052;-51
2021/08/06 02:12:42;;;;;;;7.10;3.25;;;;;;;22.99;51.79;98059.59;5047763;28;20031;-52
2021/08/06 02:15:09;;;;;;;5.25;1.42;;;;;;;23.06;51.41;98059.22;5047728;28;20108;-52
2021/08/06 02:17:37;;;;;;;8.40;4.97;;;;;;;23.27;51.53;98049.69;5031054;28;20033;-52
2021/08/06 02:20:05;;;;;;;4.00;2.05;;;;;;;23.11;51.27;98045.75;5032018;28;20049;-52
2021/08/06 02:22:34;;;;;;;6.32;2.10;;;;;;;23.00;51.62;98055.84;5047490;28;20096;-52
2021/08/06 02:25:02;;;;;;;5.35;1.33;;;;;;;22.98;51.34;98046.50;5047583;28;20018;-51
2021/08/06 02:27:29;;;;;;;3.72;1.25;;;;;;;22.74;51.13;98045.59;5032070;28;20025;-52
2021/08/06 02:29:58;;;;;;;9.70;2.40;;;;;;;22.58;52.14;98049.66;5032174;28;20021;-52
2021/08/06 02:32:25;;;;;;;2.60;1.60;;;;;;;22.49;51.70;98046.84;5030853;28;20116;-51
2021/08/06 02:34:51;;;;;;;7.90;2.40;;;;;;;22.44;52.05;98043.47;5047366;28;20026;-52
2021/08/06 02:37:17;;;;;;;5.15;1.30;;;;;;;22.46;51.79;98041.31;5047345;28;20061;-52
2021/08/06 02:39:43;;;;;;;5.95;1.85;;;;;;;22.39;52.11;98041.66;5030722;28;20056;-52
2021/08/06 02:42:09;;;;;;;2.85;1.60;;;;;;;22.39;51.29;98041.66;5031990;28;20486;-52
2021/08/06 02:44:37;;;;;;;2.10;1.30;;;;;;;22.43;51.51;98058.72;5030660;28;20017;-51
2021/08/06 02:47:04;;;;;;;3.47;1.38;;;;;;;22.42;51.43;98051.00;5030590;28;20022;-52
2021/08/06 02:49:33;;;;;;;2.80;1.25;;;;;;;22.38;50.95;98055.34;5031883;28;20034;-52
2021/08/06 02:52:01;;;;;;;6.00;1.60;;;;;;;22.38;51.69;98058.81;5031846;28;20526;-52
2021/08/06 02:54:27;;;;;;;3.38;1.88;;;;;;;22.55;52.56;98052.91;5031927;28;20022;-52
2021/08/06 02:56:53;;;;;;;4.57;1.80;;;;;;;22.29;53.24;98060.56;5047089;28;20462;-52
2021/08/06 02:59:18;;;;;;;5.25;2.63;;;;;;;21.90;54.66;98059.00;5047011;28;20032;-51
2021/08/06 03:01:44;;;;;;;3.50;1.63;;;;;;;21.83;55.16;98050.53;5031743;28;20021;-52
2021/08/06 03:04:10;;;;;;;4.32;2.45;;;;;;;22.02;54.56;98055.88;5046997;28;20057;-52
2021/08/06 03:06:35;;;;;;;12.82;11.35;;;;;;;22.29;54.99;98058.66;5031739;28;20036;-51
2021/08/06 03:09:01;;;;;;;7.60;2.25;;;;;;;22.42;54.05;98051.78;5031759;28;20021;-52
2021/08/06 03:11:27;;;;;;;7.55;3.90;;;;;;;22.33;54.00;98062.38;5031682;28;20026;-52
2021/08/06 03:13:53;;;;;;;5.13;1.40;;;;;;;22.14;54.05;98056.22;5031646;28;20108;-51
2021/08/06 03:16:18;;;;;;;3.85;1.70;;;;;;;21.99;53.80;98065.25;5031641;28;20025;-51
2021/08/06 03:18:44;;;;;;;5.28;1.50;;;;;;;21.98;53.95;98076.25;5031635;28;20564;-51
2021/08/06 03:21:13;;;;;;;5.38;3.10;;;;;;;21.90;54.65;98070.47;5029981;28;20053;-52
2021/08/06 03:23:38;;;;;;;6.20;4.40;;;;;;;21.62;55.06;98072.19;5046914;28;20511;-51
2021/08/06 03:26:04;;;;;;;3.78;1.52;;;;;;;21.43;55.19;98072.19;5046844;28;20179;-52
2021/08/06 03:28:30;;;;;;;5.13;1.50;;;;;;;21.67;54.83;98080.16;5031601;28;20402;-52
2021/08/06 03:30:55;;;;;;;4.30;2.03;;;;;;;21.92;53.82;98070.97;5030211;28;20041;-52
2021/08/06 03:33:21;;;;;;;6.45;1.75;;;;;;;21.96;53.50;98081.09;5031568;28;20029;-52
2021/08/06 03:35:47;;;;;;;4.35;1.38;;;;;;;21.91;53.13;98073.94;5030391;28;20037;-52
2021/08/06 03:38:17;;;;;;;3.75;1.13;;;;;;;21.89;52.63;98076.09;5032497;28;20017;-51
2021/08/06 03:40:43;;;;;;;3.42;1.45;;;;;;;21.85;52.56;98075.91;5035300;28;20044;-52
2021/08/06 03:43:09;;;;;;;2.92;1.42;;;;;;;21.78;52.65;98074.66;5050687;28;20582;-52
2021/08/06 03:45:35;;;;;;;5.07;1.40;;;;;;;21.74;52.47;98085.91;5035264;28;20079;-52
2021/08/06 03:48:01;;;;;;;3.28;1.80;;;;;;;21.74;52.67;98087.78;5050558;28;20033;-52
2021/08/06 03:50:27;;;;;;;10.60;2.83;;;;;;;21.88;53.75;98080.66;5050523;28;20557;-51
2021/08/06 03:52:52;;;;;;;2.58;1.92;;;;;;;21.83;54.36;98079.91;5035171;28;20071;-52
2021/08/06 03:55:18;;;;;;;5.88;1.40;;;;;;;21.44;55.04;98084.44;5035135;28;20029;-52
2021/08/06 03:57:49;;;;;;;11.52;7.07;;;;;;;21.10;56.41;98093.34;5050347;28;20018;-52
2021/08/06 04:00:16;;;;;;;7.20;4.57;;;;;;;20.98;57.40;98100.94;5050290;28;20060;-52
2021/08/06 04:02:43;;;;;;;8.82;3.35;;;;;;;21.14;57.29;98094.34;5033696;28;20025;-52
2021/08/06 04:05:09;;;;;;;5.57;1.95;;;;;;;21.29;56.58;98095.28;5034896;28;20035;-52
2021/08/06 04:07:40;;;;;;;8.32;4.90;;;;;;;21.71;55.46;98099.03;5034919;28;20026;-52
2021/08/06 04:10:06;;;;;;;5.55;2.22;;;;;;;22.25;53.57;98094.31;5050163;28;20025;-52
2021/08/06 04:12:32;;;;;;;25.27;17.20;;;;;;;22.41;52.61;98101.00;5033464;28;20018;-52
2021/08/06 04:14:57;;;;;;;4.13;1.88;;;;;;;22.71;51.55;98104.25;5034742;28;20034;-51
2021/08/06 04:17:23;;;;;;;3.03;1.40;;;;;;;22.84;51.07;98106.16;5034746;28;20564;-51
2021/08/06 04:19:49;;;;;;;5.45;2.00;;;;;;;22.74;50.87;98106.34;5049587;28;20054;-52
2021/08/06 04:22:14;;;;;;;4.65;1.40;;;;;;;22.59;50.63;98109.28;5034636;28;20021;-52
2021/08/06 04:24:40;;;;;;;7.32;2.00;;;;;;;22.45;50.61;98109.22;5034558;28;20033;-52
2021/08/06 04:27:05;;;;;;;5.95;1.70;;;;;;;22.39;50.72;98115.75;5049799;28;20017;-52
2021/08/06 04:29:31;;;;;;;4.07;1.63;;;;;;;22.29;50.71;98108.66;5049737;28;20518;-52
2021/08/06 04:31:57;;;;;;;7.07;1.77;;;;;;;22.22;50.93;98108.22;5034434;28;20021;-52
2021/08/06 04:34:22;;;;;;;6.50;2.30;;;;;;;22.23;51.20;98107.91;5034355;28;20068;-51
2021/08/06 04:36:52;;;;;;;11.63;3.00;;;;;;;22.32;51.13;98097.41;5034267;28;20053;-52
2021/08/06 04:39:19;;;;;;;5.68;2.13;;;;;;;22.41;51.07;98109.00;5034186;28;20083;-52
2021/08/06 04:41:45;;;;;;;4.82;1.70;;;;;;;22.49;50.86;98115.56;5034186;28;20021;-52
2021/08/06 04:44:10;;;;;;;5.10;2.00;;;;;;;22.56;50.75;98109.84;5034153;28;20380;-52
2021/08/06 04:46:36;;;;;;;9.05;2.08;;;;;;;22.59;50.77;98112.72;5034056;28;20048;-52
2021/08/06 04:49:02;;;;;;;14.88;11.45;;;;;;;22.63;50.90;98107.59;5049291;28;20061;-52
2021/08/06 04:51:28;;;;;;;7.47;2.53;;;;;;;22.79;51.69;98116.16;5034058;28;20455;-52
2021/08/06 04:53:53;;;;;;;5.40;2.08;;;;;;;22.54;52.92;98126.19;5049237;28;20399;-51
2021/08/06 04:56:19;;;;;;;9.40;5.22;;;;;;;22.34;53.26;98130.78;5032630;28;20028;-52
2021/08/06 04:58:45;;;;;;;9.38;4.28;;;;;;;22.10;52.99;98130.06;5033913;28;20550;-51
2021/08/06 05:01:10;;;;;;;5.20;1.77;;;;;;;22.24;53.63;98133.59;5033756;28;20026;-51
2021/08/06 05:03:36;;;;;;;17.75;9.38;;;;;;;22.35;53.32;98136.91;5033802;28;20534;-52
2021/08/06 05:06:02;;;;;;;6.35;2.00;;;;;;;22.44;52.96;98137.84;5033954;28;20113;-51
2021/08/06 05:08:28;;;;;;;9.80;3.10;;;;;;;23.42;51.09;98136.97;5049008;28;20033;-52
2021/08/06 05:10:54;;;;;;;8.48;3.00;;;;;;;24.78;48.52;98142.59;5033612;28;20025;-52
2021/08/06 05:13:19;;;;;;;16.52;3.88;;;;;;;25.74;45.84;98141.09;5033652;28;20068;-51
2021/08/06 05:15:45;;;;;;;13.57;3.83;;;;;;;26.39;43.93;98144.78;5033541;28;20021;-52
2021/08/06 05:18:11;;;;;;;11.85;2.33;;;;;;;26.84;42.93;98151.72;5033556;28;20030;-52
2021/08/06 05:20:37;;;;;;;12.73;3.50;;;;;;;27.11;42.66;98153.25;5048149;28;20045;-51
2021/08/06 05:23:03;;;;;;;8.15;2.67;;;;;;;27.23;42.84;98161.47;5033523;28;20025;-51
2021/08/06 05:25:29;;;;;;;6.18;2.85;;;;;;;27.00;43.31;98157.38;5048708;28;20355;-52
2021/08/06 05:27:55;;;;;;;7.15;3.15;;;;;;;27.18;44.36;98160.81;5033371;28;20022;-51
2021/08/06 05:30:22;;;;;;;40.70;36.15;;;;;;;27.37;43.85;98163.16;5031985;28;20053;-52
2021/08/06 05:32:49;;;;;;;11.35;6.47;;;;;;;27.62;42.71;98159.53;5033301;28;20028;-51
2021/08/06 05:35:16;;;;;;;4.85;1.83;;;;;;;28.12;41.03;98165.28;5048569;28;20060;-52
2021/08/06 05:37:42;;;;;;;4.40;2.47;;;;;;;28.74;39.69;98159.03;5033133;28;20025;-52
2021/08/06 05:40:08;;;;;;;18.73;11.18;;;;;;;29.26;38.50;98158.47;5048389;28;20026;-51
2021/08/06 05:42:34;;;;;;;25.38;4.68;;;;;;;29.73;37.43;98167.28;5033059;28;20029;-51
2021/08/06 05:45:00;;;;;;;24.95;9.75;;;;;;;30.31;36.36;98156.25;5048335;28;20454;-52
2021/08/06 05:47:26;;;;;;;124.68;106.25;;;;;;;30.97;35.16;98161.16;5048306;28;20483;-53
2021/08/06 05:49:51;;;;;;;35.03;11.23;;;;;;;31.16;34.46;98167.78;5032839;28;20111;-52
2021/08/06 05:52:17;;;;;;;17.63;4.35;;;;;;;30.02;36.07;98160.81;5032876;28;20450;-51
2021/08/06 05:54:43;;;;;;;9.88;3.67;;;;;;;28.90;37.62;98164.59;5032841;28;20024;-51
2021/08/06 05:57:08;;;;;;;49.53;39.80;;;;;;;28.02;39.56;98166.44;5048080;28;20026;-52
2021/08/06 05:59:34;;;;;;;9.27;6.13;;;;;;;27.41;40.60;98169.47;5032630;28;20030;-52
2021/08/06 06:02:00;;;;;;;14.00;2.58;;;;;;;26.98;41.22;98165.00;5047491;28;20112;-52
2021/08/06 06:04:25;;;;;;;16.10;7.47;;;;;;;27.33;40.91;98164.91;5032656;28;20503;-52
2021/08/06 06:06:51;;;;;;;19.58;7.25;;;;;;;27.81;40.03;98158.28;5031216;28;20033;-52
2021/08/06 06:09:17;;;;;;;20.98;11.65;;;;;;;27.58;41.29;98165.91;5031290;28;20022;-52
2021/08/06 06:11:42;;;;;;;16.63;3.80;;;;;;;27.96;41.14;98159.69;5047793;28;20021;-52
2021/08/06 06:14:08;;;;;;;15.38;4.07;;;;;;;29.17;38.92;98165.13;5032505;28;20022;-52
2021/08/06 06:16:34;;;;;;;13.88;5.22;;;;;;;30.65;36.49;98155.66;5032389;28;20057;-51
2021/08/06 06:19:00;;;;;;;197.45;135.93;;;;;;;31.57;34.82;98143.97;5047615;28;20033;-51
2021/08/06 06:21:25;;;;;;;90.05;63.10;;;;;;;31.94;33.64;98149.84;5032089;28;20053;-52
2021/08/06 06:23:51;;;;;;;82.18;67.50;;;;;;;32.28;33.17;98144.75;5047560;28;20626;-52
2021/08/06 06:26:17;;;;;;;24.58;8.20;;;;;;;32.86;31.85;98140.38;5032238;28;20053;-51
2021/08/06 06:28:42;;;;;;;17.50;4.85;;;;;;;33.00;31.46;98149.59;5030912;28;20026;-51
2021/08/06 06:31:08;;;;;;;24.02;6.75;;;;;;;32.17;32.36;98152.66;5047445;28;20124;-51
2021/08/06 06:33:34;;;;;;;13.07;1.73;;;;;;;31.30;32.64;98162.72;5032094;28;20385;-52
2021/08/06 06:36:00;;;;;;;7.70;2.95;;;;;;;31.38;32.61;98159.03;5032099;28;20028;-52
2021/08/06 06:38:25;;;;;;;4.60;1.92;;;;;;;31.78;32.22;98159.97;5032144;28;20029;-51
2021/08/06 06:40:51;;;;;;;7.07;1.75;;;;;;;32.62;30.88;98164.06;5030630;28;20025;-52
2021/08/06 06:43:17;;;;;;;9.27;1.77;;;;;;;34.56;28.06;98166.97;5047327;28;20029;-51
2021/08/06 06:45:43;;;;;;;11.23;5.20;;;;;;;36.54;25.83;98166.44;5032254;28;20108;-51
2021/08/06 06:48:09;;;;;;;5.78;1.85;;;;;;;37.87;23.74;98161.81;5047251;28;20021;-51
2021/08/06 06:50:35;;;;;;;7.53;2.20;;;;;;;36.98;24.34;98165.34;5031919;28;20025;-51
2021/08/06 06:53:01;;;;;;;13.25;3.13;;;;;;;36.17;25.21;98167.50;5032176;28;20403;-51
2021/08/06 06:55:27;;;;;;;11.68;3.15;;;;;;;35.46;25.60;98163.16;5031790;28;20029;-51
2021/08/06 06:57:59;;;;;;;11.57;3.70;;;;;;;35.21;25.31;98154.75;5030518;28;20096;-51
2021/08/06 07:00:29;;;;;;;11.00;7.43;;;;;;;36.38;24.06;98153.91;5031799;28;20396;-52
2021/08/06 07:02:56;;;;;;;5.50;2.30;;;;;;;37.01;23.41;98153.66;5031886;28;20033;-52
2021/08/06 07:05:22;;;;;;;11.43;5.43;;;;;;;37.42;23.31;98157.94;5035041;28;20111;-52
2021/08/06 07:07:48;;;;;;;7.22;2.17;;;;;;;37.78;22.08;98161.44;5013917;28;20025;-51
2021/08/06 07:10:13;;;;;;;8.90;3.70;;;;;;;37.91;22.67;98164.50;5031630;28;20076;-51
2021/08/06 07:12:42;;;;;;;8.50;2.33;;;;;;;38.12;21.66;98163.69;5031863;28;20021;-51
2021/08/06 07:15:09;;;;;;;6.97;2.20;;;;;;;38.34;21.58;98167.91;5035876;28;20053;-51
2021/08/06 07:17:37;;;;;;;7.57;2.45;;;;;;;38.67;20.97;98174.00;5035816;28;20395;-52
2021/08/06 07:20:05;;;;;;;8.65;3.13;;;;;;;38.84;20.85;98180.56;5035364;28;20046;-52
2021/08/06 07:22:31;;;;;;;10.93;2.03;;;;;;;38.85;20.98;98173.88;5035579;28;20030;-51
2021/08/06 07:24:57;;;;;;;6.70;1.70;;;;;;;38.68;21.18;98170.09;5035623;28;20032;-52
2021/08/06 07:27:25;;;;;;;9.77;1.90;;;;;;;38.25;21.11;98167.53;5035583;28;20088;-52
2021/08/06 07:29:51;;;;;;;10.30;2.42;;;;;;;38.06;21.41;98171.53;5035581;28;20065;-51
2021/08/06 07:32:17;;;;;;;3.38;1.20;;;;;;;37.98;20.88;98168.00;5035483;28;20471;-52
2021/08/06 07:34:42;;;;;;;7.13;2.42;;;;;;;38.14;20.95;98164.84;5035716;28;20483;-53
2021/08/06 07:37:09;;;;;;;5.95;1.63;;;;;;;38.56;20.23;98174.06;5050748;28;20022;-52
2021/08/06 07:39:35;;;;;;;11.10;1.75;;;;;;;39.77;19.85;98176.28;5035305;28;20026;-52
2021/08/06 07:42:00;;;;;;;10.25;2.92;;;;;;;40.71;18.99;98178.69;5035513;28;20025;-52
2021/08/06 07:44:26;;;;;;;8.15;1.92;;;;;;;41.40;18.09;98176.44;5035253;28;20108;-53
2021/08/06 07:46:52;;;;;;;11.38;7.03;;;;;;;41.84;17.53;98171.72;5035203;28;20403;-52
2021/08/06 07:49:17;;;;;;;10.73;2.80;;;;;;;41.68;17.52;98174.41;5050494;28;20450;-53
2021/08/06 07:51:43;;;;;;;10.70;2.53;;;;;;;41.75;17.45;98167.97;5050454;28;20549;-53
2021/08/06 07:54:09;;;;;;;9.23;2.78;;;;;;;42.04;17.21;98166.22;5033803;28;20033;-52
2021/08/06 07:56:35;;;;;;;11.90;3.03;;;;;;;42.13;17.01;98170.38;5034988;28;20024;-52
2021/08/06 07:59:01;;;;;;;10.38;3.15;;;;;;;42.13;17.18;98168.41;5035250;28;20075;-52
2021/08/06 08:01:27;;;;;;;2.65;1.30;;;;;;;42.17;16.90;98166.34;5033612;28;20030;-53
2021/08/06 08:03:52;;;;;;;15.65;8.82;;;;;;;42.05;16.94;98169.75;5050297;28;20449;-52
2021/08/06 08:06:18;;;;;;;5.68;1.80;;;;;;;41.71;17.40;98176.28;5050210;28;20025;-52
2021/08/06 08:08:44;;;;;;;5.85;1.67;;;;;;;41.46;17.48;98173.97;5033515;28;20029;-52
2021/08/06 08:11:10;;;;;;;7.07;2.20;;;;;;;41.07;17.92;98170.69;5034786;28;20045;-52
2021/08/06 08:13:38;;;;;;;8.63;4.80;;;;;;;40.83;17.90;98171.84;5034635;28;20026;-52
2021/08/06 08:16:04;;;;;;;5.20;1.58;;;;;;;40.40;18.07;98172.44;5034726;28;20041;-51
2021/08/06 08:18:31;;;;;;;4.57;1.52;;;;;;;38.70;19.52;98177.91;5050025;28;20021;-52
2021/08/06 08:20:57;;;;;;;10.15;4.07;;;;;;;37.34;21.08;98185.31;5049525;28;20045;-52
2021/08/06 08:23:23;;;;;;;6.80;2.28;;;;;;;37.76;21.15;98182.94;5049693;28;20028;-52
2021/08/06 08:25:53;;;;;;;4.30;1.33;;;;;;;38.22;20.69;98176.56;5049586;28;20029;-52
2021/08/06 08:28:19;;;;;;;4.68;1.77;;;;;;;38.93;20.17;98183.63;5035549;28;20017;-52
2021/08/06 08:30:48;;;;;;;5.45;1.90;;;;;;;39.60;18.94;98171.75;5034372;28;20069;-53
2021/08/06 08:33:19;;;;;;;10.80;3.50;;;;;;;38.17;19.82;98175.03;5034335;28;20112;-51
2021/08/06 08:35:45;;;;;;;14.38;2.42;;;;;;;37.87;20.72;98171.97;5034280;28;20033;-51
2021/08/06 08:38:12;;;;;;;10.93;4.22;;;;;;;37.60;21.02;98182.59;5032986;28;20032;-52
2021/08/06 08:40:39;;;;;;;12.63;2.67;;;;;;;37.18;21.11;98182.97;5035901;28;20026;-52
2021/08/06 08:43:06;;;;;;;6.47;1.77;;;;;;;36.70;21.22;98180.56;5033041;28;20129;-51
2021/08/06 08:45:32;;;;;;;5.90;2.20;;;;;;;36.11;21.90;98177.19;5049494;28;20029;-51
2021/08/06 08:47:58;;;;;;;6.03;2.85;;;;;;;35.24;22.81;98185.97;5034179;28;20017;-51
2021/08/06 08:50:26;;;;;;;10.70;3.10;;;;;;;35.33;23.47;98179.03;5049419;28;20033;-51
2021/08/06 08:52:53;;;;;;;4.47;1.60;;;;;;;35.19;23.21;98179.72;5032793;28;20030;-51
2021/08/06 08:55:19;;;;;;;14.75;2.53;;;;;;;34.89;23.49;98192.63;5049370;28;20033;-51
2021/08/06 08:57:45;;;;;;;6.20;2.10;;;;;;;34.27;24.08;98188.44;5033982;28;20064;-51
2021/08/06 09:00:13;;;;;;;8.13;2.45;;;;;;;33.83;25.09;98189.78;5049064;28;20037;-51
2021/08/06 09:02:40;;;;;;;10.20;3.00;;;;;;;34.01;24.67;98190.03;5034132;28;20022;-51
2021/08/06 09:05:08;;;;;;;6.55;1.88;;;;;;;34.33;24.37;98191.59;5049100;28;20022;-52
2021/08/06 09:07:34;;;;;;;6.85;1.90;;;;;;;33.81;24.78;98186.66;5033813;28;20025;-51
2021/08/06 09:10:08;;;;;;;31.42;3.72;;;;;;;33.62;25.03;98182.09;5032460;28;20026;-48
2021/08/06 09:12:52;;;;;;;12.52;1.75;;;;;;;33.71;25.04;98172.91;5033693;28;20025;-49
2021/08/06 09:15:49;;;;;;;18.92;2.85;;;;;;;35.19;24.12;98160.63;5033704;28;20155;-52
2021/08/06 09:18:37;;;;;;;17.10;2.38;;;;;;;37.27;21.90;98162.63;5033512;28;20037;-51
2021/08/06 09:21:07;;;;;;;19.92;2.25;;;;;;;36.80;21.87;98157.13;5031918;28;20447;-51
2021/08/06 09:23:50;;;;;;;27.40;3.97;;;;;;;35.56;23.09;98161.66;5033435;28;20112;-51
2021/08/06 09:26:33;;;;;;;11.10;2.20;;;;;;;34.30;24.50;98173.28;5033508;28;20033;-51
2021/08/06 09:29:05;;;;;;;23.77;4.68;;;;;;;33.36;25.18;98165.72;5033347;28;20055;-52
2021/08/06 09:31:33;;;;;;;10.98;1.90;;;;;;;32.77;25.99;98175.97;5033212;28;20047;-51
2021/08/06 09:34:14;;;;;;;5.03;1.88;;;;;;;32.03;26.89;98172.16;5033226;28;20036;-52
2021/08/06 09:37:03;;;;;;;63.83;54.25;;;;;;;31.70;27.94;98171.81;5032226;28;20056;-51
2021/08/06 09:39:33;;;;;;;5.97;2.47;;;;;;;32.06;27.33;98165.25;5033089;28;20029;-52
2021/08/06 09:41:59;;;;;;;8.05;2.42;;;;;;;32.00;26.96;98167.47;5033107;28;20048;-52
2021/08/06 09:44:27;;;;;;;9.38;2.58;;;;;;;31.97;27.36;98159.97;5031753;28;20486;-52
2021/08/06 09:46:53;;;;;;;4.97;1.55;;;;;;;31.76;27.52;98162.25;5033013;28;20108;-52
2021/08/06 09:49:20;;;;;;;6.97;1.90;;;;;;;31.44;27.16;98159.56;5033003;28;20092;-51
2021/08/06 09:51:51;;;;;;;3.60;1.40;;;;;;;31.15;27.21;98161.59;5032919;28;20080;-52
2021/08/06 09:54:28;;;;;;;5.85;1.50;;;;;;;31.56;26.74;98154.06;5032836;28;20083;-51
2021/08/06 09:57:13;;;;;;;6.47;2.78;;;;;;;33.26;25.61;98155.47;5032742;28;20053;-52
2021/08/06 09:59:39;;;;;;;10.32;2.00;;;;;;;35.09;23.46;98155.03;5032617;28;20025;-51
2021/08/06 10:02:12;;;;;;;5.30;1.60;;;;;;;36.10;21.56;98143.63;5031539;28;20090;-51
2021/08/06 10:04:38;;;;;;;6.17;3.97;;;;;;;35.72;22.16;98142.28;5032722;28;20076;-51
2021/08/06 10:07:04;;;;;;;13.95;3.88;;;;;;;36.87;21.56;98142.69;5032681;28;20044;-51
2021/08/06 10:09:30;;;;;;;3.00;1.25;;;;;;;38.23;20.15;98138.97;5032816;28;20056;-52
2021/08/06 10:11:55;;;;;;;12.63;2.95;;;;;;;39.37;19.02;98147.63;5032728;28;20487;-52
2021/08/06 10:14:22;;;;;;;3.20;1.70;;;;;;;38.67;18.99;98146.56;5047824;28;20033;-52
2021/08/06 10:16:48;;;;;;;3.35;1.50;;;;;;;36.56;21.07;98143.03;5032517;28;20466;-52
2021/08/06 10:19:14;;;;;;;3.13;1.67;;;;;;;34.91;22.40;98154.88;5032364;28;20124;-51
2021/08/06 10:21:40;;;;;;;3.47;1.55;;;;;;;33.99;23.47;98143.31;5032100;28;20051;-51
2021/08/06 10:24:08;;;;;;;6.75;1.55;;;;;;;33.51;24.12;98137.59;5032371;28;20072;-49
2021/08/06 10:26:33;;;;;;;7.60;2.00;;;;;;;33.86;24.23;98139.25;5032243;28;20068;-49
2021/08/06 10:29:00;;;;;;;7.15;2.55;;;;;;;35.43;23.19;98122.19;5032281;28;20558;-52
2021/08/06 10:31:26;;;;;;;4.60;1.52;;;;;;;37.28;21.40;98120.44;5032191;28;20029;-52
2021/08/06 10:34:05;;;;;;;10.15;4.13;;;;;;;38.76;19.64;98126.94;5032129;28;20021;-52
2021/08/06 10:36:45;;;;;;;10.05;2.95;;;;;;;38.72;19.67;98126.94;5032129;28;20112;-52
2021/08/06 10:39:33;;;;;;;7.72;4.63;;;;;;;37.63;20.29;98129.78;5030830;28;20442;-53
2021/08/06 10:42:01;;;;;;;4.57;1.30;;;;;;;37.45;20.26;98119.63;5032030;28;20030;-52
2021/08/06 10:44:56;;;;;;;5.95;3.17;;;;;;;38.57;19.93;98125.47;5032037;28;20028;-51
2021/08/06 10:47:22;;;;;;;10.23;2.63;;;;;;;38.77;18.91;98120.25;5031696;28;20095;-52
2021/08/06 10:50:12;;;;;;;6.45;2.20;;;;;;;39.38;18.71;98116.22;5031945;28;20507;-52
2021/08/06 10:52:38;;;;;;;13.23;4.35;;;;;;;39.26;18.29;98107.31;5024457;28;20458;-52
2021/08/06 10:55:24;;;;;;;6.75;1.70;;;;;;;37.76;19.60;98107.03;5031951;28;20367;-52
2021/08/06 10:57:49;;;;;;;3.03;1.40;;;;;;;38.31;19.36;98107.59;5030367;28;20041;-52
2021/08/06 11:00:35;;;;;;;4.65;1.70;;;;;;;39.70;18.50;98100.22;5030477;28;20029;-52
2021/08/06 11:03:01;;;;;;;8.80;1.92;;;;;;;40.85;17.02;98092.38;5032118;28;20095;-52
2021/08/06 11:05:29;;;;;;;5.18;1.30;;;;;;;41.42;16.61;98099.66;5046993;28;20479;-52
2021/08/06 11:07:56;;;;;;;4.53;1.70;;;;;;;41.11;16.63;98097.06;5031716;28;20116;-52
2021/08/06 11:10:43;;;;;;;6.43;2.10;;;;;;;40.28;17.11;98089.25;5047019;28;20029;-52
2021/08/06 11:13:31;;;;;;;6.03;1.85;;;;;;;39.72;18.23;98086.06;5047031;28;20519;-52
2021/08/06 11:16:07;;;;;;;8.25;1.98;;;;;;;39.23;18.00;98085.41;5031710;28;20043;-52
2021/08/06 11:18:33;;;;;;;7.82;2.50;;;;;;;38.89;18.88;98080.56;5046890;28;20036;-52
2021/08/06 11:21:00;;;;;;;4.65;1.40;;;;;;;39.32;18.74;98085.69;5031404;28;20049;-53
2021/08/06 11:23:30;;;;;;;5.25;2.50;;;;;;;38.89;18.63;98083.31;5031848;28;20037;-54
2021/08/06 11:26:11;;;;;;;3.15;1.27;;;;;;;38.87;19.16;98083.72;5031855;28;20562;-53
2021/08/06 11:28:38;;;;;;;5.70;1.30;;;;;;;39.25;18.94;98074.78;5031912;28;20071;-54
2021/08/06 11:31:15;;;;;;;6.72;1.80;;;;;;;38.89;18.37;98075.09;5046879;28;20065;-53
2021/08/06 11:33:40;;;;;;;13.35;5.47;;;;;;;38.54;19.17;98076.94;5046880;28;20180;-53
2021/08/06 11:36:15;;;;;;;7.72;2.08;;;;;;;38.36;19.29;98075.06;5030204;28;20495;-54